Al Cenac — WDD5445 — position and weather

sailwx.info

Track history (hours):
 
Tides and Currents Weather Stations Pressure Air Temp Water Temp Dewpoint Dewpoint Depression Visibility Wind Speed Wind Dir Waves Ship Positions

Al Cenac

Owner: Caillou Island Towing Co, Inc., Houma, LA. More information available from US FCC via Universal Licensing System and Coast Guard Vessel Documentation Center.

Last reported at 2018-Jan-20 14:59 UTC. Time now 2018-Jan-20 15:26 UTC.
Position N 40°38' W 074°08'.

; draft 10 m.

Type: Tug. MMSI: 367158530.

Date/timePositionNaut miles runAvg speedWind from/ knotsBaromVisibWave heightAir tempDewpointWater temp
2018-Jan-20 14:59N 40°38' W 074°08'0 0.0
2018-Jan-20 14:30N 40°38' W 074°08'0 0.0
2018-Jan-20 13:59N 40°38' W 074°08'0 0.0
2018-Jan-20 13:30N 40°38' W 074°08'0 0.2
2018-Jan-20 13:00N 40°39' W 074°08'1 1.8
2018-Jan-20 12:30N 40°39' W 074°07'2 3.7
2018-Jan-20 12:00N 40°39' W 074°04'3 5.5
2018-Jan-20 11:30N 40°38' W 074°08'0 0.0
2018-Jan-20 11:00N 40°38' W 074°08'0 0.0
2018-Jan-20 10:30N 40°38' W 074°08'0 0.0
2018-Jan-20 10:00N 40°38' W 074°08'0 0.0
2018-Jan-20 09:30N 40°38' W 074°08'0 0.0
2018-Jan-20 09:00N 40°38' W 074°08'0 0.0
2018-Jan-20 08:30N 40°38' W 074°08'0 0.0
2018-Jan-20 08:00N 40°38' W 074°08'0 0.0
2018-Jan-20 07:30N 40°38' W 074°08'0 0.0
2018-Jan-20 07:00N 40°38' W 074°08'0 0.0
2018-Jan-20 06:30N 40°38' W 074°08'0 0.0
2018-Jan-20 05:59N 40°38' W 074°08'0 0.0
2018-Jan-20 05:30N 40°38' W 074°08'0 0.0
2018-Jan-20 04:59N 40°38' W 074°08'0 0.0
2018-Jan-20 04:30N 40°38' W 074°08'0 0.0
2018-Jan-20 04:00N 40°38' W 074°08'0 0.0
2018-Jan-20 03:29N 40°38' W 074°08'0 0.0
2018-Jan-20 03:00N 40°38' W 074°08'0 0.0
2018-Jan-20 02:30N 40°38' W 074°08'0 0.0
2018-Jan-20 02:00N 40°38' W 074°08'0 0.0
2018-Jan-20 01:30N 40°38' W 074°08'0 0.0
2018-Jan-20 01:00N 40°38' W 074°08'0 0.0
2018-Jan-20 00:30N 40°38' W 074°08'0 0.0
2018-Jan-19 23:59N 40°38' W 074°08'0 0.0
2018-Jan-19 23:28N 40°38' W 074°08'2 3.9
2018-Jan-19 23:00N 40°39' W 074°06'0 1.0
2018-Jan-19 22:30N 40°39' W 074°06'2 4.7
2018-Jan-19 22:00N 40°38' W 074°09'1 1.0
2018-Jan-19 21:30N 40°39' W 074°10'0 0.0
2018-Jan-19 21:00N 40°39' W 074°10'0 0.0
2018-Jan-19 20:30N 40°39' W 074°10'0 0.0
2018-Jan-19 20:00N 40°39' W 074°10'0 0.0
2018-Jan-19 19:30N 40°39' W 074°10'0 0.0
2018-Jan-19 19:00N 40°39' W 074°10'0 0.0
2018-Jan-19 18:30N 40°39' W 074°10'0 0.0
2018-Jan-19 18:00N 40°39' W 074°10'0 0.0
2018-Jan-19 17:30N 40°39' W 074°10'1 1.0
2018-Jan-19 17:00N 40°38' W 074°09'3 6.9
2018-Jan-19 16:30N 40°39' W 074°05'1 1.6
2018-Jan-19 16:00N 40°40' W 074°04'3 5.8
2018-Jan-19 15:29N 40°39' W 074°08'2 3.3
2018-Jan-19 15:00N 40°39' W 074°10'0 0.0
2018-Jan-19 14:30N 40°39' W 074°10'0 0.0
2018-Jan-19 14:00N 40°39' W 074°10'0 0.2
2018-Jan-19 13:30N 40°39' W 074°10'0 0.0
2018-Jan-19 12:59N 40°39' W 074°10'0 0.0
2018-Jan-19 12:30N 40°39' W 074°10'0 0.0
2018-Jan-19 12:00N 40°39' W 074°10'1 3.0
2018-Jan-19 11:30N 40°39' W 074°08'0 0.2
2018-Jan-19 11:00N 40°38' W 074°08'0 0.0
2018-Jan-19 10:30N 40°38' W 074°08'0 0.0
2018-Jan-19 10:00N 40°38' W 074°08'0 0.0
2018-Jan-19 09:29N 40°38' W 074°08'0 0.0
2018-Jan-19 09:00N 40°38' W 074°08'0 0.0
2018-Jan-19 08:30N 40°38' W 074°08'0 0.0
2018-Jan-19 07:59N 40°38' W 074°08'0 0.0
2018-Jan-19 07:30N 40°38' W 074°08'0 0.0
2018-Jan-19 07:00N 40°38' W 074°08'0 0.0
2018-Jan-19 06:30N 40°38' W 074°08'0 0.0
2018-Jan-19 05:59N 40°38' W 074°08'0 0.0
2018-Jan-19 05:30N 40°38' W 074°08'0 0.0
2018-Jan-19 05:00N 40°38' W 074°08'0 0.0
2018-Jan-19 04:30N 40°38' W 074°08'0 0.0
2018-Jan-19 04:00N 40°38' W 074°08'0 0.0
2018-Jan-19 03:29N 40°38' W 074°08'0 0.0
2018-Jan-19 03:00N 40°38' W 074°08'0 0.0
2018-Jan-19 02:30N 40°38' W 074°08'0 0.0
2018-Jan-19 02:00N 40°38' W 074°08'0 0.0
2018-Jan-19 01:30N 40°38' W 074°08'0 0.0
2018-Jan-19 01:00N 40°38' W 074°08'0 0.0
2018-Jan-19 00:28N 40°38' W 074°08'0 0.0
2018-Jan-19 00:00N 40°38' W 074°08'0 0.0
2018-Jan-18 23:30N 40°38' W 074°08'0 0.0
2018-Jan-18 22:59N 40°38' W 074°08'2 3.1
2018-Jan-18 22:29N 40°39' W 074°10'0 0.0
2018-Jan-18 21:59N 40°39' W 074°10'0 0.0
2018-Jan-18 21:30N 40°39' W 074°10'0 0.1
2018-Jan-18 20:59N 40°39' W 074°10'1 3.0
2018-Jan-18 20:30N 40°38' W 074°08'0 0.0
2018-Jan-18 20:00N 40°38' W 074°08'0 0.0
2018-Jan-18 19:30N 40°38' W 074°08'0 0.0
2018-Jan-18 19:00N 40°38' W 074°08'0 0.0
2018-Jan-18 18:30N 40°38' W 074°08'0 0.0
2018-Jan-18 18:00N 40°38' W 074°08'0 0.0
2018-Jan-18 17:28N 40°38' W 074°08'0 0.0
2018-Jan-18 16:58N 40°38' W 074°08'0 0.0
2018-Jan-18 16:30N 40°38' W 074°08'0 0.0
2018-Jan-18 16:00N 40°38' W 074°08'1 2.3
2018-Jan-18 15:30N 40°38' W 074°09'0 0.9
2018-Jan-18 15:00N 40°39' W 074°10'2 4.8
2018-Jan-18 14:30N 40°39' W 074°07'2 4.6
2018-Jan-18 14:00N 40°40' W 074°04'0 0.1
2018-Jan-18 13:30N 40°40' W 074°04'0 0.0
2018-Jan-18 13:00N 40°40' W 074°04'3 4.2
2018-Jan-18 12:15N 40°38' W 074°08'0 0.0
2018-Jan-18 11:59N 40°38' W 074°08'0 0.0
2018-Jan-18 11:01N 40°38' W 074°08'0 0.0
2018-Jan-18 10:52N 40°38' W 074°08'0 0.0
2018-Jan-18 10:29N 40°38' W 074°08'0 0.0
2018-Jan-18 09:58N 40°38' W 074°08'0 0.0
2018-Jan-18 06:57N 40°38' W 074°08'0 0.0
2018-Jan-18 05:30N 40°38' W 074°08'0 0.0
2018-Jan-18 05:00N 40°38' W 074°08'0 0.0
2018-Jan-18 04:28N 40°38' W 074°08'0 0.0
2018-Jan-18 04:00N 40°38' W 074°08'2 3.6
2018-Jan-18 03:30N 40°39' W 074°06'3 6.9
2018-Jan-18 03:00N 40°41' W 074°02'1 2.8
2018-Jan-18 02:30N 40°41' W 074°00'1 1.4
2018-Jan-18 02:00N 40°41' W 074°01'4 7.0
2018-Jan-18 01:30N 40°39' W 074°05'2 3.6
2018-Jan-18 00:59N 40°39' W 074°07'0 0.1
2018-Jan-17 23:59N 40°39' W 074°07'0 3.3
2018-Jan-17 23:57N 40°39' W 074°07'  
2018-Jan-12 14:59N 40°38' W 074°08'0 0.0
2018-Jan-12 14:30N 40°38' W 074°08'0 0.0
2018-Jan-12 14:00N 40°38' W 074°08'0 0.0
2018-Jan-12 13:29N 40°38' W 074°08'2 3.9
2018-Jan-12 12:58N 40°39' W 074°11'1 2.1
2018-Jan-12 12:30N 40°38' W 074°12'0 0.6
2018-Jan-12 12:00N 40°38' W 074°12'0 0.7
2018-Jan-12 11:30N 40°38' W 074°12'0 0.0
2018-Jan-12 11:00N 40°38' W 074°12'0 0.0
2018-Jan-12 10:30N 40°38' W 074°12'0 0.0
2018-Jan-12 10:00N 40°38' W 074°12'0 0.0
2018-Jan-12 09:30N 40°38' W 074°12'0 0.0
2018-Jan-12 09:00N 40°38' W 074°12'0 0.0
2018-Jan-12 08:25N 40°38' W 074°12'0 0.0
2018-Jan-12 07:58N 40°38' W 074°12'0 0.0
2018-Jan-12 07:29N 40°38' W 074°12'0 0.0
2018-Jan-12 07:00N 40°38' W 074°12'0 0.0
2018-Jan-12 06:30N 40°38' W 074°12'0 0.0
2018-Jan-12 06:00N 40°38' W 074°12'0 0.0
2018-Jan-12 05:30N 40°38' W 074°12'0 0.0
2018-Jan-12 05:00N 40°38' W 074°12'0 0.0
2018-Jan-12 04:27N 40°38' W 074°12'0 0.0
2018-Jan-12 03:59N 40°38' W 074°12'0 0.0
2018-Jan-12 03:30N 40°38' W 074°12'0 0.0
2018-Jan-12 03:00N 40°38' W 074°12'2 0.1
2018-Jan-11 13:47N 40°39' W 074°10'  
Track history (hours):
 
Tides and Currents Weather Stations Pressure Air Temp Water Temp Dewpoint Dewpoint Depression Visibility Wind Speed Wind Dir Waves Ship Positions

Al Cenac

Owner: Caillou Island Towing Co, Inc., Houma, LA. More information available from US FCC via Universal Licensing System and Coast Guard Vessel Documentation Center.

Last reported at 2018-Jan-20 14:59 UTC. Time now 2018-Jan-20 15:26 UTC.
Position N 40°38' W 074°08'.

; draft 10 m.

Type: Tug. MMSI: 367158530.

Date/timePositionNaut miles runAvg speedWind from/ knotsBaromVisibWave heightAir tempDewpointWater temp
2018-Jan-20 14:59N 40°38' W 074°08'0 0.0
2018-Jan-20 14:30N 40°38' W 074°08'0 0.0
2018-Jan-20 13:59N 40°38' W 074°08'0 0.0
2018-Jan-20 13:30N 40°38' W 074°08'0 0.2
2018-Jan-20 13:00N 40°39' W 074°08'1 1.8
2018-Jan-20 12:30N 40°39' W 074°07'2 3.7
2018-Jan-20 12:00N 40°39' W 074°04'3 5.5
2018-Jan-20 11:30N 40°38' W 074°08'0 0.0
2018-Jan-20 11:00N 40°38' W 074°08'0 0.0
2018-Jan-20 10:30N 40°38' W 074°08'0 0.0
2018-Jan-20 10:00N 40°38' W 074°08'0 0.0
2018-Jan-20 09:30N 40°38' W 074°08'0 0.0
2018-Jan-20 09:00N 40°38' W 074°08'0 0.0
2018-Jan-20 08:30N 40°38' W 074°08'0 0.0
2018-Jan-20 08:00N 40°38' W 074°08'0 0.0
2018-Jan-20 07:30N 40°38' W 074°08'0 0.0
2018-Jan-20 07:00N 40°38' W 074°08'0 0.0
2018-Jan-20 06:30N 40°38' W 074°08'0 0.0
2018-Jan-20 05:59N 40°38' W 074°08'0 0.0
2018-Jan-20 05:30N 40°38' W 074°08'0 0.0
2018-Jan-20 04:59N 40°38' W 074°08'0 0.0
2018-Jan-20 04:30N 40°38' W 074°08'0 0.0
2018-Jan-20 04:00N 40°38' W 074°08'0 0.0
2018-Jan-20 03:29N 40°38' W 074°08'0 0.0
2018-Jan-20 03:00N 40°38' W 074°08'0 0.0
2018-Jan-20 02:30N 40°38' W 074°08'0 0.0
2018-Jan-20 02:00N 40°38' W 074°08'0 0.0
2018-Jan-20 01:30N 40°38' W 074°08'0 0.0
2018-Jan-20 01:00N 40°38' W 074°08'0 0.0
2018-Jan-20 00:30N 40°38' W 074°08'0 0.0
2018-Jan-19 23:59N 40°38' W 074°08'0 0.0
2018-Jan-19 23:28N 40°38' W 074°08'2 3.9
2018-Jan-19 23:00N 40°39' W 074°06'0 1.0
2018-Jan-19 22:30N 40°39' W 074°06'2 4.7
2018-Jan-19 22:00N 40°38' W 074°09'1 1.0
2018-Jan-19 21:30N 40°39' W 074°10'0 0.0
2018-Jan-19 21:00N 40°39' W 074°10'0 0.0
2018-Jan-19 20:30N 40°39' W 074°10'0 0.0
2018-Jan-19 20:00N 40°39' W 074°10'0 0.0
2018-Jan-19 19:30N 40°39' W 074°10'0 0.0
2018-Jan-19 19:00N 40°39' W 074°10'0 0.0
2018-Jan-19 18:30N 40°39' W 074°10'0 0.0
2018-Jan-19 18:00N 40°39' W 074°10'0 0.0
2018-Jan-19 17:30N 40°39' W 074°10'1 1.0
2018-Jan-19 17:00N 40°38' W 074°09'3 6.9
2018-Jan-19 16:30N 40°39' W 074°05'1 1.6
2018-Jan-19 16:00N 40°40' W 074°04'3 5.8
2018-Jan-19 15:29N 40°39' W 074°08'2 3.3
2018-Jan-19 15:00N 40°39' W 074°10'0 0.0
2018-Jan-19 14:30N 40°39' W 074°10'0 0.0
2018-Jan-19 14:00N 40°39' W 074°10'0 0.2
2018-Jan-19 13:30N 40°39' W 074°10'0 0.0
2018-Jan-19 12:59N 40°39' W 074°10'0 0.0
2018-Jan-19 12:30N 40°39' W 074°10'0 0.0
2018-Jan-19 12:00N 40°39' W 074°10'1 3.0
2018-Jan-19 11:30N 40°39' W 074°08'0 0.2
2018-Jan-19 11:00N 40°38' W 074°08'0 0.0
2018-Jan-19 10:30N 40°38' W 074°08'0 0.0
2018-Jan-19 10:00N 40°38' W 074°08'0 0.0
2018-Jan-19 09:29N 40°38' W 074°08'0 0.0
2018-Jan-19 09:00N 40°38' W 074°08'0 0.0
2018-Jan-19 08:30N 40°38' W 074°08'0 0.0
2018-Jan-19 07:59N 40°38' W 074°08'0 0.0
2018-Jan-19 07:30N 40°38' W 074°08'0 0.0
2018-Jan-19 07:00N 40°38' W 074°08'0 0.0
2018-Jan-19 06:30N 40°38' W 074°08'0 0.0
2018-Jan-19 05:59N 40°38' W 074°08'0 0.0
2018-Jan-19 05:30N 40°38' W 074°08'0 0.0
2018-Jan-19 05:00N 40°38' W 074°08'0 0.0
2018-Jan-19 04:30N 40°38' W 074°08'0 0.0
2018-Jan-19 04:00N 40°38' W 074°08'0 0.0
2018-Jan-19 03:29N 40°38' W 074°08'0 0.0
2018-Jan-19 03:00N 40°38' W 074°08'0 0.0
2018-Jan-19 02:30N 40°38' W 074°08'0 0.0
2018-Jan-19 02:00N 40°38' W 074°08'0 0.0
2018-Jan-19 01:30N 40°38' W 074°08'0 0.0
2018-Jan-19 01:00N 40°38' W 074°08'0 0.0
2018-Jan-19 00:28N 40°38' W 074°08'0 0.0
2018-Jan-19 00:00N 40°38' W 074°08'0 0.0
2018-Jan-18 23:30N 40°38' W 074°08'0 0.0
2018-Jan-18 22:59N 40°38' W 074°08'2 3.1
2018-Jan-18 22:29N 40°39' W 074°10'0 0.0
2018-Jan-18 21:59N 40°39' W 074°10'0 0.0
2018-Jan-18 21:30N 40°39' W 074°10'0 0.1
2018-Jan-18 20:59N 40°39' W 074°10'1 3.0
2018-Jan-18 20:30N 40°38' W 074°08'0 0.0
2018-Jan-18 20:00N 40°38' W 074°08'0 0.0
2018-Jan-18 19:30N 40°38' W 074°08'0 0.0
2018-Jan-18 19:00N 40°38' W 074°08'0 0.0
2018-Jan-18 18:30N 40°38' W 074°08'0 0.0
2018-Jan-18 18:00N 40°38' W 074°08'0 0.0
2018-Jan-18 17:28N 40°38' W 074°08'0 0.0
2018-Jan-18 16:58N 40°38' W 074°08'0 0.0
2018-Jan-18 16:30N 40°38' W 074°08'0 0.0
2018-Jan-18 16:00N 40°38' W 074°08'1 2.3
2018-Jan-18 15:30N 40°38' W 074°09'0 0.9
2018-Jan-18 15:00N 40°39' W 074°10'2 4.8
2018-Jan-18 14:30N 40°39' W 074°07'2 4.6
2018-Jan-18 14:00N 40°40' W 074°04'0 0.1
2018-Jan-18 13:30N 40°40' W 074°04'0 0.0
2018-Jan-18 13:00N 40°40' W 074°04'3 4.2
2018-Jan-18 12:15N 40°38' W 074°08'0 0.0
2018-Jan-18 11:59N 40°38' W 074°08'0 0.0
2018-Jan-18 11:01N 40°38' W 074°08'0 0.0
2018-Jan-18 10:52N 40°38' W 074°08'0 0.0
2018-Jan-18 10:29N 40°38' W 074°08'0 0.0
2018-Jan-18 09:58N 40°38' W 074°08'0 0.0
2018-Jan-18 06:57N 40°38' W 074°08'0 0.0
2018-Jan-18 05:30N 40°38' W 074°08'0 0.0
2018-Jan-18 05:00N 40°38' W 074°08'0 0.0
2018-Jan-18 04:28N 40°38' W 074°08'0 0.0
2018-Jan-18 04:00N 40°38' W 074°08'2 3.6
2018-Jan-18 03:30N 40°39' W 074°06'3 6.9
2018-Jan-18 03:00N 40°41' W 074°02'1 2.8
2018-Jan-18 02:30N 40°41' W 074°00'1 1.4
2018-Jan-18 02:00N 40°41' W 074°01'4 7.0
2018-Jan-18 01:30N 40°39' W 074°05'2 3.6
2018-Jan-18 00:59N 40°39' W 074°07'0 0.1
2018-Jan-17 23:59N 40°39' W 074°07'0 3.3
2018-Jan-17 23:57N 40°39' W 074°07'  
2018-Jan-12 14:59N 40°38' W 074°08'0 0.0
2018-Jan-12 14:30N 40°38' W 074°08'0 0.0
2018-Jan-12 14:00N 40°38' W 074°08'0 0.0
2018-Jan-12 13:29N 40°38' W 074°08'2 3.9
2018-Jan-12 12:58N 40°39' W 074°11'1 2.1
2018-Jan-12 12:30N 40°38' W 074°12'0 0.6
2018-Jan-12 12:00N 40°38' W 074°12'0 0.7
2018-Jan-12 11:30N 40°38' W 074°12'0 0.0
2018-Jan-12 11:00N 40°38' W 074°12'0 0.0
2018-Jan-12 10:30N 40°38' W 074°12'0 0.0
2018-Jan-12 10:00N 40°38' W 074°12'0 0.0
2018-Jan-12 09:30N 40°38' W 074°12'0 0.0
2018-Jan-12 09:00N 40°38' W 074°12'0 0.0
2018-Jan-12 08:25N 40°38' W 074°12'0 0.0
2018-Jan-12 07:58N 40°38' W 074°12'0 0.0
2018-Jan-12 07:29N 40°38' W 074°12'0 0.0
2018-Jan-12 07:00N 40°38' W 074°12'0 0.0
2018-Jan-12 06:30N 40°38' W 074°12'0 0.0
2018-Jan-12 06:00N 40°38' W 074°12'0 0.0
2018-Jan-12 05:30N 40°38' W 074°12'0 0.0
2018-Jan-12 05:00N 40°38' W 074°12'0 0.0
2018-Jan-12 04:27N 40°38' W 074°12'0 0.0
2018-Jan-12 03:59N 40°38' W 074°12'0 0.0
2018-Jan-12 03:30N 40°38' W 074°12'0 0.0
2018-Jan-12 03:00N 40°38' W 074°12'2 0.1
2018-Jan-11 13:47N 40°39' W 074°10'  

Dump ship's entire track history